Terminal Aerodrome Forecast
Issued by NWS Lubbock, TX

Home | Current Version | Previous Version | Text Only | Print | Product List | Glossary On
Versions: 1 2 3 4 5 6 7 8 9 10 11 12 13 14 15 16 17 18 19 20 21 22 23 24 25 26 27 28 29 30 31 32 33 34 35 36 37
000
FTUS44 KLUB 230100 AAA
TAFLBB
TAF AMD
KLBB 230112Z 2301/2324 16007KT 3SM BR SCT020 BKN060
      TEMPO 2301/2305 OVC008
     FM230500 20006KT 3SM BR SCT060
     FM231600 22010KT P6SM FEW060=

USA.gov is the U.S. government's official web portal to all federal, state and local government web resources and services.